sensor_id;sensor_type;location;lat;lon;timestamp;P1;durP1;ratioP1;P2;durP2;ratioP2
18084;SDS011;9169;44.492;11.372;2024-02-21T00:01:03;42.93;;;18.50;;
18084;SDS011;9169;44.492;11.372;2024-02-21T00:03:32;43.07;;;18.00;;
18084;SDS011;9169;44.492;11.372;2024-02-21T00:06:00;42.33;;;17.80;;
18084;SDS011;9169;44.492;11.372;2024-02-21T00:08:29;48.77;;;18.57;;
18084;SDS011;9169;44.492;11.372;2024-02-21T00:10:57;48.03;;;18.23;;
18084;SDS011;9169;44.492;11.372;2024-02-21T00:13:26;46.40;;;19.23;;
18084;SDS011;9169;44.492;11.372;2024-02-21T00:15:56;52.83;;;19.60;;
18084;SDS011;9169;44.492;11.372;2024-02-21T00:18:25;47.23;;;18.77;;
18084;SDS011;9169;44.492;11.372;2024-02-21T00:20:54;45.93;;;18.30;;
18084;SDS011;9169;44.492;11.372;2024-02-21T00:23:23;49.70;;;19.80;;
18084;SDS011;9169;44.492;11.372;2024-02-21T00:25:52;46.53;;;18.80;;
18084;SDS011;9169;44.492;11.372;2024-02-21T00:28:21;48.00;;;18.30;;
18084;SDS011;9169;44.492;11.372;2024-02-21T00:30:49;54.03;;;20.63;;
18084;SDS011;9169;44.492;11.372;2024-02-21T00:33:21;53.50;;;18.63;;
18084;SDS011;9169;44.492;11.372;2024-02-21T00:35:49;49.10;;;20.17;;
18084;SDS011;9169;44.492;11.372;2024-02-21T00:38:18;48.67;;;20.40;;
18084;SDS011;9169;44.492;11.372;2024-02-21T00:40:46;51.60;;;20.87;;
18084;SDS011;9169;44.492;11.372;2024-02-21T00:43:15;49.17;;;20.70;;
18084;SDS011;9169;44.492;11.372;2024-02-21T00:45:43;54.63;;;21.20;;
18084;SDS011;9169;44.492;11.372;2024-02-21T00:48:12;50.40;;;20.80;;
18084;SDS011;9169;44.492;11.372;2024-02-21T00:50:42;48.53;;;21.57;;
18084;SDS011;9169;44.492;11.372;2024-02-21T00:53:11;54.57;;;21.20;;
18084;SDS011;9169;44.492;11.372;2024-02-21T00:55:39;54.57;;;22.47;;
18084;SDS011;9169;44.492;11.372;2024-02-21T00:58:09;70.10;;;22.37;;
18084;SDS011;9169;44.492;11.372;2024-02-21T01:00:38;75.27;;;25.40;;
18084;SDS011;9169;44.492;11.372;2024-02-21T01:03:07;84.93;;;26.30;;
18084;SDS011;9169;44.492;11.372;2024-02-21T01:05:35;84.50;;;24.90;;
18084;SDS011;9169;44.492;11.372;2024-02-21T01:08:06;60.00;;;23.70;;
18084;SDS011;9169;44.492;11.372;2024-02-21T01:10:35;63.87;;;23.27;;
18084;SDS011;9169;44.492;11.372;2024-02-21T01:13:04;59.27;;;24.40;;
18084;SDS011;9169;44.492;11.372;2024-02-21T01:15:33;64.53;;;25.10;;
18084;SDS011;9169;44.492;11.372;2024-02-21T01:18:02;59.83;;;24.90;;
18084;SDS011;9169;44.492;11.372;2024-02-21T01:20:34;61.30;;;24.43;;
18084;SDS011;9169;44.492;11.372;2024-02-21T01:23:03;59.03;;;24.70;;
18084;SDS011;9169;44.492;11.372;2024-02-21T01:25:34;63.07;;;24.40;;
18084;SDS011;9169;44.492;11.372;2024-02-21T01:28:02;59.87;;;23.70;;
18084;SDS011;9169;44.492;11.372;2024-02-21T01:30:31;66.30;;;25.40;;
18084;SDS011;9169;44.492;11.372;2024-02-21T01:33:00;64.90;;;24.60;;
18084;SDS011;9169;44.492;11.372;2024-02-21T01:35:28;58.30;;;25.30;;
18084;SDS011;9169;44.492;11.372;2024-02-21T01:37:57;63.10;;;28.33;;
18084;SDS011;9169;44.492;11.372;2024-02-21T01:40:25;59.37;;;24.40;;
18084;SDS011;9169;44.492;11.372;2024-02-21T01:42:55;61.80;;;24.57;;
18084;SDS011;9169;44.492;11.372;2024-02-21T01:45:24;59.40;;;23.90;;
18084;SDS011;9169;44.492;11.372;2024-02-21T01:47:52;61.80;;;24.70;;
18084;SDS011;9169;44.492;11.372;2024-02-21T01:50:21;66.20;;;25.03;;
18084;SDS011;9169;44.492;11.372;2024-02-21T01:52:51;59.53;;;24.03;;
18084;SDS011;9169;44.492;11.372;2024-02-21T01:55:20;66.10;;;24.83;;
18084;SDS011;9169;44.492;11.372;2024-02-21T01:57:48;61.73;;;24.60;;
18084;SDS011;9169;44.492;11.372;2024-02-21T02:00:18;61.07;;;23.23;;
18084;SDS011;9169;44.492;11.372;2024-02-21T02:02:47;67.63;;;25.77;;
18084;SDS011;9169;44.492;11.372;2024-02-21T02:05:16;62.50;;;24.43;;
18084;SDS011;9169;44.492;11.372;2024-02-21T02:07:47;68.43;;;24.63;;
18084;SDS011;9169;44.492;11.372;2024-02-21T02:10:16;63.30;;;25.50;;
18084;SDS011;9169;44.492;11.372;2024-02-21T02:12:45;61.73;;;22.57;;
18084;SDS011;9169;44.492;11.372;2024-02-21T02:15:13;62.33;;;24.20;;
18084;SDS011;9169;44.492;11.372;2024-02-21T02:17:43;61.30;;;23.50;;
18084;SDS011;9169;44.492;11.372;2024-02-21T02:20:12;65.27;;;24.90;;
18084;SDS011;9169;44.492;11.372;2024-02-21T02:22:41;63.83;;;23.97;;
18084;SDS011;9169;44.492;11.372;2024-02-21T02:25:12;62.27;;;22.70;;
18084;SDS011;9169;44.492;11.372;2024-02-21T02:27:41;64.00;;;22.00;;
18084;SDS011;9169;44.492;11.372;2024-02-21T02:30:12;68.30;;;22.53;;
18084;SDS011;9169;44.492;11.372;2024-02-21T02:32:43;60.60;;;23.17;;
18084;SDS011;9169;44.492;11.372;2024-02-21T02:35:13;57.60;;;22.00;;
18084;SDS011;9169;44.492;11.372;2024-02-21T02:37:47;69.50;;;23.13;;
18084;SDS011;9169;44.492;11.372;2024-02-21T02:40:17;61.00;;;24.50;;
18084;SDS011;9169;44.492;11.372;2024-02-21T02:42:46;71.47;;;24.73;;
18084;SDS011;9169;44.492;11.372;2024-02-21T02:45:16;61.60;;;23.07;;
18084;SDS011;9169;44.492;11.372;2024-02-21T02:47:45;67.43;;;25.47;;
18084;SDS011;9169;44.492;11.372;2024-02-21T02:50:14;62.03;;;23.60;;
18084;SDS011;9169;44.492;11.372;2024-02-21T02:52:43;65.67;;;23.70;;
18084;SDS011;9169;44.492;11.372;2024-02-21T02:55:12;61.00;;;23.70;;
18084;SDS011;9169;44.492;11.372;2024-02-21T02:57:41;62.13;;;22.33;;
18084;SDS011;9169;44.492;11.372;2024-02-21T03:00:11;62.00;;;24.30;;
18084;SDS011;9169;44.492;11.372;2024-02-21T03:02:42;62.40;;;24.13;;
18084;SDS011;9169;44.492;11.372;2024-02-21T03:05:12;60.87;;;23.50;;
18084;SDS011;9169;44.492;11.372;2024-02-21T03:07:42;62.70;;;25.07;;
18084;SDS011;9169;44.492;11.372;2024-02-21T03:10:11;62.27;;;23.03;;
18084;SDS011;9169;44.492;11.372;2024-02-21T03:12:42;63.87;;;24.00;;
18084;SDS011;9169;44.492;11.372;2024-02-21T03:15:12;64.47;;;24.67;;
18084;SDS011;9169;44.492;11.372;2024-02-21T03:17:41;60.80;;;24.00;;
18084;SDS011;9169;44.492;11.372;2024-02-21T03:20:10;62.77;;;22.73;;
18084;SDS011;9169;44.492;11.372;2024-02-21T03:22:40;64.80;;;23.47;;
18084;SDS011;9169;44.492;11.372;2024-02-21T03:25:09;64.00;;;22.43;;
18084;SDS011;9169;44.492;11.372;2024-02-21T03:27:39;58.63;;;22.97;;
18084;SDS011;9169;44.492;11.372;2024-02-21T03:30:09;59.80;;;21.83;;
18084;SDS011;9169;44.492;11.372;2024-02-21T03:32:39;58.83;;;22.13;;
18084;SDS011;9169;44.492;11.372;2024-02-21T03:35:07;59.43;;;22.80;;
18084;SDS011;9169;44.492;11.372;2024-02-21T03:37:36;59.40;;;22.77;;
18084;SDS011;9169;44.492;11.372;2024-02-21T03:40:06;60.17;;;22.33;;
18084;SDS011;9169;44.492;11.372;2024-02-21T03:42:36;60.30;;;23.30;;
18084;SDS011;9169;44.492;11.372;2024-02-21T03:45:05;61.90;;;23.70;;
18084;SDS011;9169;44.492;11.372;2024-02-21T03:47:36;59.90;;;22.27;;
18084;SDS011;9169;44.492;11.372;2024-02-21T03:50:05;60.23;;;22.80;;
18084;SDS011;9169;44.492;11.372;2024-02-21T03:52:34;59.40;;;21.70;;
18084;SDS011;9169;44.492;11.372;2024-02-21T03:55:03;56.27;;;20.63;;
18084;SDS011;9169;44.492;11.372;2024-02-21T03:57:34;60.40;;;20.90;;
18084;SDS011;9169;44.492;11.372;2024-02-21T04:00:03;56.77;;;18.80;;
18084;SDS011;9169;44.492;11.372;2024-02-21T04:02:39;59.00;;;20.50;;
18084;SDS011;9169;44.492;11.372;2024-02-21T04:05:07;56.67;;;19.17;;
18084;SDS011;9169;44.492;11.372;2024-02-21T04:07:38;59.30;;;18.60;;
18084;SDS011;9169;44.492;11.372;2024-02-21T04:10:07;56.63;;;19.23;;
18084;SDS011;9169;44.492;11.372;2024-02-21T04:12:36;60.27;;;18.23;;
18084;SDS011;9169;44.492;11.372;2024-02-21T04:15:05;52.63;;;18.50;;
18084;SDS011;9169;44.492;11.372;2024-02-21T04:17:34;54.53;;;17.30;;
18084;SDS011;9169;44.492;11.372;2024-02-21T04:20:05;55.30;;;18.33;;
18084;SDS011;9169;44.492;11.372;2024-02-21T04:22:35;53.70;;;17.70;;
18084;SDS011;9169;44.492;11.372;2024-02-21T04:25:04;51.67;;;16.20;;
18084;SDS011;9169;44.492;11.372;2024-02-21T04:27:33;52.10;;;17.47;;
18084;SDS011;9169;44.492;11.372;2024-02-21T04:30:02;50.57;;;17.53;;
18084;SDS011;9169;44.492;11.372;2024-02-21T04:32:30;54.63;;;17.10;;
18084;SDS011;9169;44.492;11.372;2024-02-21T04:34:59;55.67;;;19.30;;
18084;SDS011;9169;44.492;11.372;2024-02-21T04:37:29;55.77;;;18.43;;
18084;SDS011;9169;44.492;11.372;2024-02-21T04:39:58;52.40;;;17.40;;
18084;SDS011;9169;44.492;11.372;2024-02-21T04:42:27;51.70;;;16.93;;
18084;SDS011;9169;44.492;11.372;2024-02-21T04:44:55;59.53;;;18.20;;
18084;SDS011;9169;44.492;11.372;2024-02-21T04:47:24;54.77;;;18.70;;
18084;SDS011;9169;44.492;11.372;2024-02-21T04:49:53;54.37;;;17.63;;
18084;SDS011;9169;44.492;11.372;2024-02-21T04:52:22;54.67;;;17.60;;
18084;SDS011;9169;44.492;11.372;2024-02-21T04:54:52;54.77;;;17.70;;
18084;SDS011;9169;44.492;11.372;2024-02-21T04:57:20;55.43;;;18.97;;
18084;SDS011;9169;44.492;11.372;2024-02-21T04:59:49;54.20;;;18.17;;
18084;SDS011;9169;44.492;11.372;2024-02-21T05:02:17;58.30;;;16.70;;
18084;SDS011;9169;44.492;11.372;2024-02-21T05:04:49;55.87;;;19.60;;
18084;SDS011;9169;44.492;11.372;2024-02-21T05:07:17;59.30;;;18.80;;
18084;SDS011;9169;44.492;11.372;2024-02-21T05:09:46;55.00;;;16.93;;
18084;SDS011;9169;44.492;11.372;2024-02-21T05:12:16;55.30;;;17.40;;
18084;SDS011;9169;44.492;11.372;2024-02-21T05:14:45;54.40;;;17.60;;
18084;SDS011;9169;44.492;11.372;2024-02-21T05:17:14;51.83;;;16.13;;
18084;SDS011;9169;44.492;11.372;2024-02-21T05:19:43;64.23;;;16.47;;
18084;SDS011;9169;44.492;11.372;2024-02-21T05:22:11;53.93;;;16.77;;
18084;SDS011;9169;44.492;11.372;2024-02-21T05:24:40;52.67;;;15.97;;
18084;SDS011;9169;44.492;11.372;2024-02-21T05:27:08;55.37;;;17.20;;
18084;SDS011;9169;44.492;11.372;2024-02-21T05:29:38;52.40;;;15.50;;
18084;SDS011;9169;44.492;11.372;2024-02-21T05:32:07;53.10;;;17.07;;
18084;SDS011;9169;44.492;11.372;2024-02-21T05:34:35;58.90;;;16.40;;
18084;SDS011;9169;44.492;11.372;2024-02-21T05:37:04;54.83;;;17.23;;
18084;SDS011;9169;44.492;11.372;2024-02-21T05:39:33;55.77;;;17.80;;
18084;SDS011;9169;44.492;11.372;2024-02-21T05:42:01;57.97;;;17.90;;
18084;SDS011;9169;44.492;11.372;2024-02-21T05:44:30;56.20;;;17.27;;
18084;SDS011;9169;44.492;11.372;2024-02-21T05:47:00;67.30;;;17.03;;
18084;SDS011;9169;44.492;11.372;2024-02-21T05:49:29;55.47;;;16.83;;
18084;SDS011;9169;44.492;11.372;2024-02-21T05:51:57;61.23;;;16.80;;
18084;SDS011;9169;44.492;11.372;2024-02-21T05:54:26;57.73;;;17.87;;
18084;SDS011;9169;44.492;11.372;2024-02-21T05:56:54;51.50;;;16.27;;
18084;SDS011;9169;44.492;11.372;2024-02-21T05:59:23;53.83;;;15.90;;
18084;SDS011;9169;44.492;11.372;2024-02-21T06:01:55;53.40;;;16.07;;
18084;SDS011;9169;44.492;11.372;2024-02-21T06:04:26;52.77;;;15.97;;
18084;SDS011;9169;44.492;11.372;2024-02-21T06:06:54;51.20;;;16.40;;
18084;SDS011;9169;44.492;11.372;2024-02-21T06:09:23;52.93;;;16.33;;
18084;SDS011;9169;44.492;11.372;2024-02-21T06:11:51;52.10;;;16.40;;
18084;SDS011;9169;44.492;11.372;2024-02-21T06:14:20;53.20;;;15.93;;
18084;SDS011;9169;44.492;11.372;2024-02-21T06:16:52;51.23;;;15.13;;
18084;SDS011;9169;44.492;11.372;2024-02-21T06:19:21;52.57;;;16.13;;
18084;SDS011;9169;44.492;11.372;2024-02-21T06:21:51;50.47;;;14.90;;
18084;SDS011;9169;44.492;11.372;2024-02-21T06:24:20;52.87;;;14.63;;
18084;SDS011;9169;44.492;11.372;2024-02-21T06:26:48;56.07;;;16.10;;
18084;SDS011;9169;44.492;11.372;2024-02-21T06:29:17;63.87;;;16.23;;
18084;SDS011;9169;44.492;11.372;2024-02-21T06:31:46;67.33;;;17.20;;
18084;SDS011;9169;44.492;11.372;2024-02-21T06:34:14;63.30;;;16.03;;
18084;SDS011;9169;44.492;11.372;2024-02-21T06:36:44;60.67;;;16.80;;
18084;SDS011;9169;44.492;11.372;2024-02-21T06:39:14;66.03;;;17.63;;
18084;SDS011;9169;44.492;11.372;2024-02-21T06:41:43;65.20;;;16.40;;
18084;SDS011;9169;44.492;11.372;2024-02-21T06:44:12;64.10;;;17.20;;
18084;SDS011;9169;44.492;11.372;2024-02-21T06:46:40;57.53;;;16.90;;
18084;SDS011;9169;44.492;11.372;2024-02-21T06:49:09;59.37;;;16.67;;
18084;SDS011;9169;44.492;11.372;2024-02-21T06:51:42;53.57;;;16.57;;
18084;SDS011;9169;44.492;11.372;2024-02-21T06:54:11;58.33;;;15.50;;
18084;SDS011;9169;44.492;11.372;2024-02-21T06:56:41;58.77;;;16.43;;
18084;SDS011;9169;44.492;11.372;2024-02-21T06:59:10;58.00;;;18.17;;
18084;SDS011;9169;44.492;11.372;2024-02-21T07:01:44;57.77;;;19.37;;
18084;SDS011;9169;44.492;11.372;2024-02-21T07:04:13;58.00;;;18.40;;
18084;SDS011;9169;44.492;11.372;2024-02-21T07:06:42;72.27;;;19.00;;
18084;SDS011;9169;44.492;11.372;2024-02-21T07:09:10;61.87;;;18.83;;
18084;SDS011;9169;44.492;11.372;2024-02-21T07:11:40;61.10;;;19.67;;
18084;SDS011;9169;44.492;11.372;2024-02-21T07:14:09;67.93;;;19.50;;
18084;SDS011;9169;44.492;11.372;2024-02-21T07:16:37;58.83;;;20.93;;
18084;SDS011;9169;44.492;11.372;2024-02-21T07:19:06;62.77;;;20.90;;
18084;SDS011;9169;44.492;11.372;2024-02-21T07:21:34;58.77;;;19.77;;
18084;SDS011;9169;44.492;11.372;2024-02-21T07:24:04;62.27;;;20.40;;
18084;SDS011;9169;44.492;11.372;2024-02-21T07:26:33;59.13;;;19.30;;
18084;SDS011;9169;44.492;11.372;2024-02-21T07:29:03;57.30;;;18.87;;
18084;SDS011;9169;44.492;11.372;2024-02-21T07:31:38;60.97;;;20.90;;
18084;SDS011;9169;44.492;11.372;2024-02-21T07:34:07;59.87;;;19.50;;
18084;SDS011;9169;44.492;11.372;2024-02-21T07:36:36;61.83;;;19.60;;
18084;SDS011;9169;44.492;11.372;2024-02-21T07:39:05;59.57;;;19.23;;
18084;SDS011;9169;44.492;11.372;2024-02-21T07:41:34;55.80;;;18.83;;
18084;SDS011;9169;44.492;11.372;2024-02-21T07:44:04;53.03;;;18.50;;
18084;SDS011;9169;44.492;11.372;2024-02-21T07:46:32;52.00;;;17.70;;
18084;SDS011;9169;44.492;11.372;2024-02-21T07:49:01;54.30;;;19.70;;
18084;SDS011;9169;44.492;11.372;2024-02-21T07:51:30;53.73;;;16.93;;
18084;SDS011;9169;44.492;11.372;2024-02-21T07:53:58;52.80;;;17.97;;
18084;SDS011;9169;44.492;11.372;2024-02-21T07:56:27;53.57;;;17.43;;
18084;SDS011;9169;44.492;11.372;2024-02-21T07:58:56;51.90;;;19.30;;
18084;SDS011;9169;44.492;11.372;2024-02-21T08:01:26;51.20;;;17.23;;
18084;SDS011;9169;44.492;11.372;2024-02-21T08:03:55;45.43;;;18.60;;
18084;SDS011;9169;44.492;11.372;2024-02-21T08:06:23;47.83;;;17.27;;
18084;SDS011;9169;44.492;11.372;2024-02-21T08:08:52;40.87;;;16.37;;
18084;SDS011;9169;44.492;11.372;2024-02-21T08:11:20;40.77;;;16.67;;
18084;SDS011;9169;44.492;11.372;2024-02-21T08:13:49;43.17;;;18.03;;
18084;SDS011;9169;44.492;11.372;2024-02-21T08:16:18;38.53;;;16.07;;
18084;SDS011;9169;44.492;11.372;2024-02-21T08:18:48;34.80;;;16.17;;
18084;SDS011;9169;44.492;11.372;2024-02-21T08:21:17;40.47;;;16.87;;
18084;SDS011;9169;44.492;11.372;2024-02-21T08:23:46;25.90;;;15.93;;
18084;SDS011;9169;44.492;11.372;2024-02-21T08:26:18;26.80;;;17.70;;
18084;SDS011;9169;44.492;11.372;2024-02-21T08:28:46;28.33;;;18.17;;
18084;SDS011;9169;44.492;11.372;2024-02-21T08:31:18;28.30;;;17.67;;
18084;SDS011;9169;44.492;11.372;2024-02-21T08:33:48;26.33;;;18.73;;
18084;SDS011;9169;44.492;11.372;2024-02-21T08:36:17;27.53;;;18.10;;
18084;SDS011;9169;44.492;11.372;2024-02-21T08:38:47;28.83;;;19.13;;
18084;SDS011;9169;44.492;11.372;2024-02-21T08:41:15;23.93;;;18.17;;
18084;SDS011;9169;44.492;11.372;2024-02-21T08:43:44;25.73;;;17.77;;
18084;SDS011;9169;44.492;11.372;2024-02-21T08:46:12;34.83;;;20.63;;
18084;SDS011;9169;44.492;11.372;2024-02-21T08:48:41;30.50;;;19.87;;
18084;SDS011;9169;44.492;11.372;2024-02-21T08:51:12;31.30;;;19.47;;
18084;SDS011;9169;44.492;11.372;2024-02-21T08:53:41;31.00;;;20.40;;
18084;SDS011;9169;44.492;11.372;2024-02-21T08:56:09;32.37;;;20.93;;
18084;SDS011;9169;44.492;11.372;2024-02-21T08:58:38;30.40;;;21.33;;
18084;SDS011;9169;44.492;11.372;2024-02-21T09:01:08;27.80;;;20.77;;
18084;SDS011;9169;44.492;11.372;2024-02-21T09:03:37;29.87;;;19.97;;
18084;SDS011;9169;44.492;11.372;2024-02-21T09:06:07;32.37;;;21.20;;
18084;SDS011;9169;44.492;11.372;2024-02-21T09:08:38;38.23;;;21.00;;
18084;SDS011;9169;44.492;11.372;2024-02-21T09:11:08;33.13;;;19.37;;
18084;SDS011;9169;44.492;11.372;2024-02-21T09:13:37;29.10;;;19.90;;
18084;SDS011;9169;44.492;11.372;2024-02-21T09:16:06;27.93;;;19.63;;
18084;SDS011;9169;44.492;11.372;2024-02-21T09:18:36;34.63;;;19.13;;
18084;SDS011;9169;44.492;11.372;2024-02-21T09:21:04;27.17;;;19.00;;
18084;SDS011;9169;44.492;11.372;2024-02-21T09:23:33;32.40;;;18.33;;
18084;SDS011;9169;44.492;11.372;2024-02-21T09:26:03;29.27;;;17.63;;
18084;SDS011;9169;44.492;11.372;2024-02-21T09:28:31;31.03;;;18.57;;
18084;SDS011;9169;44.492;11.372;2024-02-21T09:31:01;27.60;;;17.80;;
18084;SDS011;9169;44.492;11.372;2024-02-21T09:33:29;23.70;;;17.07;;
18084;SDS011;9169;44.492;11.372;2024-02-21T09:35:58;23.93;;;16.10;;
18084;SDS011;9169;44.492;11.372;2024-02-21T09:38:27;24.73;;;17.90;;
18084;SDS011;9169;44.492;11.372;2024-02-21T09:40:58;40.83;;;17.67;;
18084;SDS011;9169;44.492;11.372;2024-02-21T09:43:29;26.27;;;18.53;;
18084;SDS011;9169;44.492;11.372;2024-02-21T09:45:58;27.30;;;18.87;;
18084;SDS011;9169;44.492;11.372;2024-02-21T09:48:30;28.53;;;19.13;;
18084;SDS011;9169;44.492;11.372;2024-02-21T09:51:14;33.10;;;20.07;;
18084;SDS011;9169;44.492;11.372;2024-02-21T09:53:44;31.13;;;20.10;;
18084;SDS011;9169;44.492;11.372;2024-02-21T09:56:17;34.80;;;21.03;;
18084;SDS011;9169;44.492;11.372;2024-02-21T09:58:47;29.40;;;21.13;;
18084;SDS011;9169;44.492;11.372;2024-02-21T10:01:16;30.07;;;19.97;;
18084;SDS011;9169;44.492;11.372;2024-02-21T10:03:47;27.03;;;18.60;;
18084;SDS011;9169;44.492;11.372;2024-02-21T10:06:16;27.93;;;18.73;;
18084;SDS011;9169;44.492;11.372;2024-02-21T10:08:51;31.07;;;20.23;;
18084;SDS011;9169;44.492;11.372;2024-02-21T10:11:23;26.80;;;20.47;;
18084;SDS011;9169;44.492;11.372;2024-02-21T10:14:03;25.97;;;18.80;;
18084;SDS011;9169;44.492;11.372;2024-02-21T10:16:33;29.80;;;19.20;;
18084;SDS011;9169;44.492;11.372;2024-02-21T10:19:02;28.97;;;21.37;;
18084;SDS011;9169;44.492;11.372;2024-02-21T10:21:30;27.63;;;19.60;;
18084;SDS011;9169;44.492;11.372;2024-02-21T10:23:59;31.07;;;19.93;;
18084;SDS011;9169;44.492;11.372;2024-02-21T10:26:28;30.60;;;20.37;;
18084;SDS011;9169;44.492;11.372;2024-02-21T10:28:56;27.20;;;20.20;;
18084;SDS011;9169;44.492;11.372;2024-02-21T10:31:27;35.43;;;21.73;;
18084;SDS011;9169;44.492;11.372;2024-02-21T10:33:56;28.93;;;20.77;;
18084;SDS011;9169;44.492;11.372;2024-02-21T10:36:25;33.53;;;20.93;;
18084;SDS011;9169;44.492;11.372;2024-02-21T10:38:54;30.60;;;20.47;;
18084;SDS011;9169;44.492;11.372;2024-02-21T10:41:24;30.10;;;19.67;;
18084;SDS011;9169;44.492;11.372;2024-02-21T10:43:54;26.30;;;18.90;;
18084;SDS011;9169;44.492;11.372;2024-02-21T10:46:23;28.30;;;20.63;;
18084;SDS011;9169;44.492;11.372;2024-02-21T10:48:57;28.57;;;21.50;;
18084;SDS011;9169;44.492;11.372;2024-02-21T10:51:33;29.00;;;21.03;;
18084;SDS011;9169;44.492;11.372;2024-02-21T10:54:07;30.30;;;22.07;;
18084;SDS011;9169;44.492;11.372;2024-02-21T10:56:47;32.90;;;22.90;;
18084;SDS011;9169;44.492;11.372;2024-02-21T10:59:19;29.80;;;20.80;;
18084;SDS011;9169;44.492;11.372;2024-02-21T11:01:47;36.20;;;22.43;;
18084;SDS011;9169;44.492;11.372;2024-02-21T11:04:18;32.87;;;21.77;;
18084;SDS011;9169;44.492;11.372;2024-02-21T11:06:47;31.33;;;23.50;;
18084;SDS011;9169;44.492;11.372;2024-02-21T11:09:16;32.30;;;23.40;;
18084;SDS011;9169;44.492;11.372;2024-02-21T11:11:45;33.57;;;23.00;;
18084;SDS011;9169;44.492;11.372;2024-02-21T11:14:17;34.20;;;24.80;;
18084;SDS011;9169;44.492;11.372;2024-02-21T11:16:47;33.30;;;24.87;;
18084;SDS011;9169;44.492;11.372;2024-02-21T11:19:21;37.40;;;25.50;;
18084;SDS011;9169;44.492;11.372;2024-02-21T11:21:51;35.00;;;25.13;;
18084;SDS011;9169;44.492;11.372;2024-02-21T11:24:28;33.17;;;24.50;;
18084;SDS011;9169;44.492;11.372;2024-02-21T11:27:07;35.23;;;25.67;;
18084;SDS011;9169;44.492;11.372;2024-02-21T11:29:40;33.57;;;24.93;;
18084;SDS011;9169;44.492;11.372;2024-02-21T11:32:10;33.73;;;25.13;;
18084;SDS011;9169;44.492;11.372;2024-02-21T11:34:41;32.50;;;23.63;;
18084;SDS011;9169;44.492;11.372;2024-02-21T11:37:23;32.20;;;22.50;;
18084;SDS011;9169;44.492;11.372;2024-02-21T11:39:54;35.70;;;23.77;;
18084;SDS011;9169;44.492;11.372;2024-02-21T11:42:22;32.60;;;24.13;;
18084;SDS011;9169;44.492;11.372;2024-02-21T11:44:53;31.87;;;24.20;;
18084;SDS011;9169;44.492;11.372;2024-02-21T11:47:23;32.53;;;22.93;;
18084;SDS011;9169;44.492;11.372;2024-02-21T11:49:53;31.30;;;24.53;;
18084;SDS011;9169;44.492;11.372;2024-02-21T11:52:22;34.13;;;24.30;;
18084;SDS011;9169;44.492;11.372;2024-02-21T11:54:52;34.63;;;24.30;;
18084;SDS011;9169;44.492;11.372;2024-02-21T11:57:24;30.60;;;22.90;;
18084;SDS011;9169;44.492;11.372;2024-02-21T11:59:53;30.63;;;22.83;;
18084;SDS011;9169;44.492;11.372;2024-02-21T12:02:23;32.60;;;24.20;;
18084;SDS011;9169;44.492;11.372;2024-02-21T12:04:51;32.67;;;25.03;;
18084;SDS011;9169;44.492;11.372;2024-02-21T12:07:22;29.90;;;22.60;;
18084;SDS011;9169;44.492;11.372;2024-02-21T12:09:51;30.23;;;21.47;;
18084;SDS011;9169;44.492;11.372;2024-02-21T12:12:20;28.50;;;20.80;;
18084;SDS011;9169;44.492;11.372;2024-02-21T12:14:54;33.43;;;20.53;;
18084;SDS011;9169;44.492;11.372;2024-02-21T12:17:24;27.93;;;20.93;;
18084;SDS011;9169;44.492;11.372;2024-02-21T12:19:54;26.17;;;20.20;;
18084;SDS011;9169;44.492;11.372;2024-02-21T12:22:24;30.43;;;23.10;;
18084;SDS011;9169;44.492;11.372;2024-02-21T12:24:54;36.50;;;22.50;;
18084;SDS011;9169;44.492;11.372;2024-02-21T12:27:22;29.03;;;22.23;;
18084;SDS011;9169;44.492;11.372;2024-02-21T12:29:52;30.37;;;23.10;;
18084;SDS011;9169;44.492;11.372;2024-02-21T12:32:20;27.33;;;20.57;;
18084;SDS011;9169;44.492;11.372;2024-02-21T12:34:49;25.83;;;19.17;;
18084;SDS011;9169;44.492;11.372;2024-02-21T12:37:21;28.63;;;20.43;;
18084;SDS011;9169;44.492;11.372;2024-02-21T12:39:51;24.63;;;18.40;;
18084;SDS011;9169;44.492;11.372;2024-02-21T12:42:20;29.70;;;21.73;;
18084;SDS011;9169;44.492;11.372;2024-02-21T12:44:50;28.57;;;20.90;;
18084;SDS011;9169;44.492;11.372;2024-02-21T12:47:19;24.77;;;19.50;;
18084;SDS011;9169;44.492;11.372;2024-02-21T12:49:50;23.13;;;17.80;;
18084;SDS011;9169;44.492;11.372;2024-02-21T12:52:20;21.23;;;17.53;;
18084;SDS011;9169;44.492;11.372;2024-02-21T12:54:49;29.80;;;19.03;;
18084;SDS011;9169;44.492;11.372;2024-02-21T12:57:18;22.53;;;18.07;;
18084;SDS011;9169;44.492;11.372;2024-02-21T12:59:48;25.30;;;19.37;;
18084;SDS011;9169;44.492;11.372;2024-02-21T13:02:17;21.90;;;17.30;;
18084;SDS011;9169;44.492;11.372;2024-02-21T13:04:47;25.23;;;18.47;;
18084;SDS011;9169;44.492;11.372;2024-02-21T13:07:15;23.97;;;17.90;;
18084;SDS011;9169;44.492;11.372;2024-02-21T13:09:46;28.33;;;17.20;;
18084;SDS011;9169;44.492;11.372;2024-02-21T13:12:14;20.40;;;15.60;;
18084;SDS011;9169;44.492;11.372;2024-02-21T13:14:43;24.33;;;16.87;;
18084;SDS011;9169;44.492;11.372;2024-02-21T13:17:11;19.20;;;15.17;;
18084;SDS011;9169;44.492;11.372;2024-02-21T13:19:41;23.10;;;16.00;;
18084;SDS011;9169;44.492;11.372;2024-02-21T13:22:10;20.03;;;15.47;;
18084;SDS011;9169;44.492;11.372;2024-02-21T13:24:38;21.00;;;16.97;;
18084;SDS011;9169;44.492;11.372;2024-02-21T13:27:08;21.33;;;15.90;;
18084;SDS011;9169;44.492;11.372;2024-02-21T13:29:37;20.17;;;15.03;;
18084;SDS011;9169;44.492;11.372;2024-02-21T13:32:07;19.57;;;15.10;;
18084;SDS011;9169;44.492;11.372;2024-02-21T13:34:36;19.30;;;16.23;;
18084;SDS011;9169;44.492;11.372;2024-02-21T13:37:05;17.90;;;14.97;;
18084;SDS011;9169;44.492;11.372;2024-02-21T13:39:36;19.93;;;14.80;;
18084;SDS011;9169;44.492;11.372;2024-02-21T13:42:05;17.47;;;15.30;;
18084;SDS011;9169;44.492;11.372;2024-02-21T13:44:35;21.37;;;14.93;;
18084;SDS011;9169;44.492;11.372;2024-02-21T13:47:05;18.40;;;14.67;;
18084;SDS011;9169;44.492;11.372;2024-02-21T13:49:34;18.67;;;14.43;;
18084;SDS011;9169;44.492;11.372;2024-02-21T13:52:03;19.87;;;15.60;;
18084;SDS011;9169;44.492;11.372;2024-02-21T13:54:32;22.13;;;15.30;;
18084;SDS011;9169;44.492;11.372;2024-02-21T13:57:00;19.70;;;14.73;;
18084;SDS011;9169;44.492;11.372;2024-02-21T13:59:30;22.90;;;15.73;;
18084;SDS011;9169;44.492;11.372;2024-02-21T14:02:01;20.13;;;14.47;;
18084;SDS011;9169;44.492;11.372;2024-02-21T14:04:30;24.00;;;14.93;;
18084;SDS011;9169;44.492;11.372;2024-02-21T14:06:59;19.20;;;15.10;;
18084;SDS011;9169;44.492;11.372;2024-02-21T14:09:27;19.60;;;14.37;;
18084;SDS011;9169;44.492;11.372;2024-02-21T14:11:57;19.87;;;14.40;;
18084;SDS011;9169;44.492;11.372;2024-02-21T14:14:26;19.77;;;14.60;;
18084;SDS011;9169;44.492;11.372;2024-02-21T14:16:54;21.20;;;15.80;;
18084;SDS011;9169;44.492;11.372;2024-02-21T14:19:25;22.00;;;15.67;;
18084;SDS011;9169;44.492;11.372;2024-02-21T14:21:54;20.60;;;15.70;;
18084;SDS011;9169;44.492;11.372;2024-02-21T14:24:23;19.73;;;14.80;;
18084;SDS011;9169;44.492;11.372;2024-02-21T14:26:52;21.47;;;15.30;;
18084;SDS011;9169;44.492;11.372;2024-02-21T14:29:20;20.93;;;15.60;;
18084;SDS011;9169;44.492;11.372;2024-02-21T14:31:50;20.70;;;14.63;;
18084;SDS011;9169;44.492;11.372;2024-02-21T14:34:18;21.50;;;14.90;;